sensor_id;sensor_type;location;lat;lon;timestamp;P1;durP1;ratioP1;P2;durP2;ratioP2
17812;SDS011;9030;50.792;8.320;2023-06-22T00:00:46;38.47;;;35.45;;
17812;SDS011;9030;50.792;8.320;2023-06-22T00:03:13;38.67;;;35.70;;
17812;SDS011;9030;50.792;8.320;2023-06-22T00:05:40;39.03;;;36.13;;
17812;SDS011;9030;50.792;8.320;2023-06-22T00:08:06;41.60;;;38.00;;
17812;SDS011;9030;50.792;8.320;2023-06-22T00:10:34;39.13;;;36.30;;
17812;SDS011;9030;50.792;8.320;2023-06-22T00:13:01;39.90;;;36.97;;
17812;SDS011;9030;50.792;8.320;2023-06-22T00:15:27;40.38;;;37.25;;
17812;SDS011;9030;50.792;8.320;2023-06-22T00:17:54;40.33;;;37.13;;
17812;SDS011;9030;50.792;8.320;2023-06-22T00:20:22;38.88;;;36.08;;
17812;SDS011;9030;50.792;8.320;2023-06-22T00:22:52;41.78;;;38.42;;
17812;SDS011;9030;50.792;8.320;2023-06-22T00:25:19;37.13;;;34.33;;
17812;SDS011;9030;50.792;8.320;2023-06-22T00:27:47;35.13;;;32.53;;
17812;SDS011;9030;50.792;8.320;2023-06-22T00:30:14;40.13;;;36.60;;
17812;SDS011;9030;50.792;8.320;2023-06-22T00:32:42;38.53;;;35.38;;
17812;SDS011;9030;50.792;8.320;2023-06-22T00:35:09;37.67;;;34.53;;
17812;SDS011;9030;50.792;8.320;2023-06-22T00:37:36;39.10;;;35.83;;
17812;SDS011;9030;50.792;8.320;2023-06-22T00:40:07;37.17;;;34.53;;
17812;SDS011;9030;50.792;8.320;2023-06-22T00:42:36;38.58;;;35.90;;
17812;SDS011;9030;50.792;8.320;2023-06-22T00:45:05;37.55;;;34.65;;
17812;SDS011;9030;50.792;8.320;2023-06-22T00:47:33;37.60;;;34.53;;
17812;SDS011;9030;50.792;8.320;2023-06-22T00:50:00;38.40;;;35.53;;
17812;SDS011;9030;50.792;8.320;2023-06-22T00:52:28;35.92;;;33.22;;
17812;SDS011;9030;50.792;8.320;2023-06-22T00:54:58;40.20;;;37.05;;
17812;SDS011;9030;50.792;8.320;2023-06-22T00:57:26;40.67;;;37.15;;
17812;SDS011;9030;50.792;8.320;2023-06-22T00:59:54;39.25;;;36.45;;
17812;SDS011;9030;50.792;8.320;2023-06-22T01:02:22;40.65;;;37.60;;
17812;SDS011;9030;50.792;8.320;2023-06-22T01:04:49;38.95;;;36.08;;
17812;SDS011;9030;50.792;8.320;2023-06-22T01:07:17;31.33;;;28.95;;
17812;SDS011;9030;50.792;8.320;2023-06-22T01:09:49;34.80;;;32.08;;
17812;SDS011;9030;50.792;8.320;2023-06-22T01:12:23;34.08;;;31.25;;
17812;SDS011;9030;50.792;8.320;2023-06-22T01:14:54;33.05;;;30.33;;
17812;SDS011;9030;50.792;8.320;2023-06-22T01:17:26;33.60;;;31.08;;
17812;SDS011;9030;50.792;8.320;2023-06-22T01:19:54;33.63;;;31.08;;
17812;SDS011;9030;50.792;8.320;2023-06-22T01:22:22;37.72;;;34.45;;
17812;SDS011;9030;50.792;8.320;2023-06-22T01:24:55;38.90;;;36.15;;
17812;SDS011;9030;50.792;8.320;2023-06-22T01:27:36;39.30;;;36.20;;
17812;SDS011;9030;50.792;8.320;2023-06-22T01:30:12;40.22;;;36.58;;
17812;SDS011;9030;50.792;8.320;2023-06-22T01:32:41;34.25;;;31.65;;
17812;SDS011;9030;50.792;8.320;2023-06-22T01:35:10;35.17;;;32.58;;
17812;SDS011;9030;50.792;8.320;2023-06-22T01:37:38;29.90;;;27.73;;
17812;SDS011;9030;50.792;8.320;2023-06-22T01:40:05;34.05;;;31.40;;
17812;SDS011;9030;50.792;8.320;2023-06-22T01:42:34;32.42;;;29.83;;
17812;SDS011;9030;50.792;8.320;2023-06-22T01:45:02;36.47;;;33.75;;
17812;SDS011;9030;50.792;8.320;2023-06-22T01:47:31;31.02;;;28.77;;
17812;SDS011;9030;50.792;8.320;2023-06-22T01:49:58;35.83;;;32.92;;
17812;SDS011;9030;50.792;8.320;2023-06-22T01:52:25;35.20;;;32.03;;
17812;SDS011;9030;50.792;8.320;2023-06-22T01:54:51;35.58;;;32.83;;
17812;SDS011;9030;50.792;8.320;2023-06-22T01:57:18;36.03;;;33.03;;
17812;SDS011;9030;50.792;8.320;2023-06-22T01:59:48;34.88;;;32.08;;
17812;SDS011;9030;50.792;8.320;2023-06-22T02:02:19;33.90;;;31.15;;
17812;SDS011;9030;50.792;8.320;2023-06-22T02:04:54;36.83;;;33.80;;
17812;SDS011;9030;50.792;8.320;2023-06-22T02:07:23;38.75;;;35.95;;
17812;SDS011;9030;50.792;8.320;2023-06-22T02:09:53;36.40;;;33.80;;
17812;SDS011;9030;50.792;8.320;2023-06-22T02:12:22;38.70;;;35.80;;
17812;SDS011;9030;50.792;8.320;2023-06-22T02:14:52;39.53;;;36.38;;
17812;SDS011;9030;50.792;8.320;2023-06-22T02:17:19;36.08;;;33.38;;
17812;SDS011;9030;50.792;8.320;2023-06-22T02:19:46;37.28;;;34.45;;
17812;SDS011;9030;50.792;8.320;2023-06-22T02:22:15;37.78;;;34.90;;
17812;SDS011;9030;50.792;8.320;2023-06-22T02:24:41;45.20;;;41.75;;
17812;SDS011;9030;50.792;8.320;2023-06-22T02:27:08;39.00;;;35.80;;
17812;SDS011;9030;50.792;8.320;2023-06-22T02:29:36;36.85;;;33.95;;
17812;SDS011;9030;50.792;8.320;2023-06-22T02:32:03;39.72;;;36.53;;
17812;SDS011;9030;50.792;8.320;2023-06-22T02:34:31;39.67;;;36.35;;
17812;SDS011;9030;50.792;8.320;2023-06-22T02:36:59;37.47;;;34.78;;
17812;SDS011;9030;50.792;8.320;2023-06-22T02:39:28;40.53;;;37.58;;
17812;SDS011;9030;50.792;8.320;2023-06-22T02:41:55;41.60;;;38.50;;
17812;SDS011;9030;50.792;8.320;2023-06-22T02:44:22;39.88;;;37.08;;
17812;SDS011;9030;50.792;8.320;2023-06-22T02:46:49;40.15;;;37.35;;
17812;SDS011;9030;50.792;8.320;2023-06-22T02:49:15;38.30;;;35.45;;
17812;SDS011;9030;50.792;8.320;2023-06-22T02:51:44;38.65;;;35.55;;
17812;SDS011;9030;50.792;8.320;2023-06-22T02:54:12;37.85;;;34.83;;
17812;SDS011;9030;50.792;8.320;2023-06-22T02:56:40;37.45;;;34.75;;
17812;SDS011;9030;50.792;8.320;2023-06-22T02:59:08;39.03;;;36.15;;
17812;SDS011;9030;50.792;8.320;2023-06-22T03:01:36;44.08;;;40.50;;
17812;SDS011;9030;50.792;8.320;2023-06-22T03:04:04;45.88;;;42.58;;
17812;SDS011;9030;50.792;8.320;2023-06-22T03:06:31;42.03;;;38.63;;
17812;SDS011;9030;50.792;8.320;2023-06-22T03:08:59;39.25;;;36.22;;
17812;SDS011;9030;50.792;8.320;2023-06-22T03:11:28;39.72;;;36.58;;
17812;SDS011;9030;50.792;8.320;2023-06-22T03:13:56;36.42;;;33.22;;
17812;SDS011;9030;50.792;8.320;2023-06-22T03:16:22;33.88;;;31.23;;
17812;SDS011;9030;50.792;8.320;2023-06-22T03:18:49;34.88;;;32.22;;
17812;SDS011;9030;50.792;8.320;2023-06-22T03:21:16;32.70;;;30.02;;
17812;SDS011;9030;50.792;8.320;2023-06-22T03:23:42;33.40;;;31.05;;
17812;SDS011;9030;50.792;8.320;2023-06-22T03:26:09;32.55;;;30.02;;
17812;SDS011;9030;50.792;8.320;2023-06-22T03:28:37;34.03;;;31.50;;
17812;SDS011;9030;50.792;8.320;2023-06-22T03:31:05;37.10;;;34.30;;
17812;SDS011;9030;50.792;8.320;2023-06-22T03:33:32;35.65;;;33.00;;
17812;SDS011;9030;50.792;8.320;2023-06-22T03:35:59;37.30;;;34.60;;
17812;SDS011;9030;50.792;8.320;2023-06-22T03:38:26;40.83;;;37.72;;
17812;SDS011;9030;50.792;8.320;2023-06-22T03:40:52;37.17;;;34.38;;
17812;SDS011;9030;50.792;8.320;2023-06-22T03:43:19;38.67;;;35.83;;
17812;SDS011;9030;50.792;8.320;2023-06-22T03:45:46;35.58;;;33.05;;
17812;SDS011;9030;50.792;8.320;2023-06-22T03:48:14;36.97;;;34.08;;
17812;SDS011;9030;50.792;8.320;2023-06-22T03:50:40;37.03;;;34.38;;
17812;SDS011;9030;50.792;8.320;2023-06-22T03:53:09;36.08;;;33.33;;
17812;SDS011;9030;50.792;8.320;2023-06-22T03:55:35;33.55;;;31.08;;
17812;SDS011;9030;50.792;8.320;2023-06-22T03:58:02;33.45;;;30.83;;
17812;SDS011;9030;50.792;8.320;2023-06-22T04:00:30;33.67;;;31.00;;
17812;SDS011;9030;50.792;8.320;2023-06-22T04:02:57;34.33;;;31.48;;
17812;SDS011;9030;50.792;8.320;2023-06-22T04:05:25;35.40;;;32.75;;
17812;SDS011;9030;50.792;8.320;2023-06-22T04:07:52;35.22;;;32.72;;
17812;SDS011;9030;50.792;8.320;2023-06-22T04:10:18;39.70;;;36.72;;
17812;SDS011;9030;50.792;8.320;2023-06-22T04:12:45;38.90;;;35.33;;
17812;SDS011;9030;50.792;8.320;2023-06-22T04:15:13;36.53;;;33.72;;
17812;SDS011;9030;50.792;8.320;2023-06-22T04:17:39;35.85;;;33.03;;
17812;SDS011;9030;50.792;8.320;2023-06-22T04:20:07;32.50;;;29.90;;
17812;SDS011;9030;50.792;8.320;2023-06-22T04:22:35;34.85;;;32.17;;
17812;SDS011;9030;50.792;8.320;2023-06-22T04:25:02;34.15;;;31.40;;
17812;SDS011;9030;50.792;8.320;2023-06-22T04:27:29;33.40;;;30.75;;
17812;SDS011;9030;50.792;8.320;2023-06-22T04:29:56;34.08;;;31.33;;
17812;SDS011;9030;50.792;8.320;2023-06-22T04:32:25;36.20;;;33.30;;
17812;SDS011;9030;50.792;8.320;2023-06-22T04:34:51;37.20;;;34.47;;
17812;SDS011;9030;50.792;8.320;2023-06-22T04:37:18;37.58;;;34.67;;
17812;SDS011;9030;50.792;8.320;2023-06-22T04:39:49;37.63;;;34.72;;
17812;SDS011;9030;50.792;8.320;2023-06-22T04:42:16;40.47;;;37.15;;
17812;SDS011;9030;50.792;8.320;2023-06-22T04:44:43;39.45;;;36.45;;
17812;SDS011;9030;50.792;8.320;2023-06-22T04:47:09;39.65;;;36.47;;
17812;SDS011;9030;50.792;8.320;2023-06-22T04:49:36;40.55;;;37.47;;
17812;SDS011;9030;50.792;8.320;2023-06-22T04:52:05;39.17;;;35.90;;
17812;SDS011;9030;50.792;8.320;2023-06-22T04:54:33;33.55;;;30.98;;
17812;SDS011;9030;50.792;8.320;2023-06-22T04:57:03;32.65;;;29.95;;
17812;SDS011;9030;50.792;8.320;2023-06-22T04:59:34;35.80;;;32.90;;
17812;SDS011;9030;50.792;8.320;2023-06-22T05:02:04;34.35;;;31.60;;
17812;SDS011;9030;50.792;8.320;2023-06-22T05:04:31;32.30;;;29.73;;
17812;SDS011;9030;50.792;8.320;2023-06-22T05:07:00;32.15;;;29.77;;
17812;SDS011;9030;50.792;8.320;2023-06-22T05:09:28;33.65;;;31.05;;
17812;SDS011;9030;50.792;8.320;2023-06-22T05:11:55;33.85;;;31.25;;
17812;SDS011;9030;50.792;8.320;2023-06-22T05:14:23;37.00;;;33.95;;
17812;SDS011;9030;50.792;8.320;2023-06-22T05:16:50;33.13;;;30.52;;
17812;SDS011;9030;50.792;8.320;2023-06-22T05:19:17;34.53;;;31.80;;
17812;SDS011;9030;50.792;8.320;2023-06-22T05:21:44;40.13;;;37.13;;
17812;SDS011;9030;50.792;8.320;2023-06-22T05:24:11;38.65;;;35.78;;
17812;SDS011;9030;50.792;8.320;2023-06-22T05:26:38;36.00;;;33.20;;
17812;SDS011;9030;50.792;8.320;2023-06-22T05:29:04;37.10;;;34.15;;
17812;SDS011;9030;50.792;8.320;2023-06-22T05:31:33;36.85;;;33.95;;
17812;SDS011;9030;50.792;8.320;2023-06-22T05:33:59;34.05;;;31.50;;
17812;SDS011;9030;50.792;8.320;2023-06-22T05:36:26;35.40;;;32.90;;
17812;SDS011;9030;50.792;8.320;2023-06-22T05:38:53;35.35;;;32.42;;
17812;SDS011;9030;50.792;8.320;2023-06-22T05:41:19;34.47;;;31.67;;
17812;SDS011;9030;50.792;8.320;2023-06-22T05:43:46;33.00;;;30.38;;
17812;SDS011;9030;50.792;8.320;2023-06-22T05:46:13;33.35;;;30.83;;
17812;SDS011;9030;50.792;8.320;2023-06-22T05:48:41;31.77;;;28.98;;
17812;SDS011;9030;50.792;8.320;2023-06-22T05:51:07;28.40;;;26.13;;
17812;SDS011;9030;50.792;8.320;2023-06-22T05:53:34;29.15;;;26.85;;
17812;SDS011;9030;50.792;8.320;2023-06-22T05:56:01;31.75;;;29.23;;
17812;SDS011;9030;50.792;8.320;2023-06-22T05:58:27;28.27;;;25.77;;
17812;SDS011;9030;50.792;8.320;2023-06-22T06:00:54;28.63;;;26.25;;
17812;SDS011;9030;50.792;8.320;2023-06-22T06:03:21;26.23;;;24.23;;
17812;SDS011;9030;50.792;8.320;2023-06-22T06:05:49;27.60;;;25.15;;
17812;SDS011;9030;50.792;8.320;2023-06-22T06:08:16;26.42;;;23.73;;
17812;SDS011;9030;50.792;8.320;2023-06-22T06:10:42;25.10;;;23.10;;
17812;SDS011;9030;50.792;8.320;2023-06-22T06:13:09;25.75;;;23.50;;
17812;SDS011;9030;50.792;8.320;2023-06-22T06:15:36;26.80;;;24.40;;
17812;SDS011;9030;50.792;8.320;2023-06-22T06:18:03;25.27;;;23.23;;
17812;SDS011;9030;50.792;8.320;2023-06-22T06:20:31;24.15;;;22.13;;
17812;SDS011;9030;50.792;8.320;2023-06-22T06:22:59;23.70;;;21.60;;
17812;SDS011;9030;50.792;8.320;2023-06-22T06:25:26;22.17;;;20.17;;
17812;SDS011;9030;50.792;8.320;2023-06-22T06:27:53;22.25;;;20.30;;
17812;SDS011;9030;50.792;8.320;2023-06-22T06:30:20;22.95;;;20.95;;
17812;SDS011;9030;50.792;8.320;2023-06-22T06:32:47;22.63;;;20.48;;
17812;SDS011;9030;50.792;8.320;2023-06-22T06:35:15;23.92;;;21.73;;
17812;SDS011;9030;50.792;8.320;2023-06-22T06:37:43;19.63;;;17.83;;
17812;SDS011;9030;50.792;8.320;2023-06-22T06:40:12;18.67;;;16.88;;
17812;SDS011;9030;50.792;8.320;2023-06-22T06:42:40;19.88;;;18.08;;
17812;SDS011;9030;50.792;8.320;2023-06-22T06:45:09;18.00;;;16.30;;
17812;SDS011;9030;50.792;8.320;2023-06-22T06:47:36;19.88;;;18.00;;
17812;SDS011;9030;50.792;8.320;2023-06-22T06:50:04;17.92;;;16.23;;
17812;SDS011;9030;50.792;8.320;2023-06-22T06:52:31;20.45;;;18.25;;
17812;SDS011;9030;50.792;8.320;2023-06-22T06:54:58;19.75;;;17.77;;
17812;SDS011;9030;50.792;8.320;2023-06-22T06:57:26;17.45;;;15.68;;
17812;SDS011;9030;50.792;8.320;2023-06-22T06:59:54;17.20;;;15.45;;
17812;SDS011;9030;50.792;8.320;2023-06-22T07:02:21;16.25;;;14.57;;
17812;SDS011;9030;50.792;8.320;2023-06-22T07:04:48;16.33;;;14.52;;
17812;SDS011;9030;50.792;8.320;2023-06-22T07:07:14;16.00;;;14.38;;
17812;SDS011;9030;50.792;8.320;2023-06-22T07:09:41;15.95;;;14.35;;
17812;SDS011;9030;50.792;8.320;2023-06-22T07:12:08;15.45;;;13.40;;
17812;SDS011;9030;50.792;8.320;2023-06-22T07:14:36;15.52;;;13.65;;
17812;SDS011;9030;50.792;8.320;2023-06-22T07:17:03;14.77;;;13.27;;
17812;SDS011;9030;50.792;8.320;2023-06-22T07:19:30;14.40;;;12.90;;
17812;SDS011;9030;50.792;8.320;2023-06-22T07:21:58;15.80;;;14.23;;
17812;SDS011;9030;50.792;8.320;2023-06-22T07:24:25;15.38;;;13.77;;
17812;SDS011;9030;50.792;8.320;2023-06-22T07:26:52;16.08;;;14.23;;
17812;SDS011;9030;50.792;8.320;2023-06-22T07:29:19;16.30;;;14.57;;
17812;SDS011;9030;50.792;8.320;2023-06-22T07:31:47;15.35;;;13.63;;
17812;SDS011;9030;50.792;8.320;2023-06-22T07:34:15;15.27;;;13.68;;
17812;SDS011;9030;50.792;8.320;2023-06-22T07:36:42;15.48;;;14.00;;
17812;SDS011;9030;50.792;8.320;2023-06-22T07:39:09;15.15;;;13.55;;
17812;SDS011;9030;50.792;8.320;2023-06-22T07:41:36;16.42;;;14.80;;
17812;SDS011;9030;50.792;8.320;2023-06-22T07:44:04;17.02;;;15.43;;
17812;SDS011;9030;50.792;8.320;2023-06-22T07:46:31;15.02;;;13.52;;
17812;SDS011;9030;50.792;8.320;2023-06-22T07:48:59;17.38;;;15.68;;
17812;SDS011;9030;50.792;8.320;2023-06-22T07:51:26;16.80;;;15.07;;
17812;SDS011;9030;50.792;8.320;2023-06-22T07:53:53;15.18;;;13.57;;
17812;SDS011;9030;50.792;8.320;2023-06-22T07:56:20;15.25;;;13.73;;
17812;SDS011;9030;50.792;8.320;2023-06-22T07:58:47;18.65;;;15.20;;
17812;SDS011;9030;50.792;8.320;2023-06-22T08:01:13;14.93;;;12.80;;
17812;SDS011;9030;50.792;8.320;2023-06-22T08:03:40;15.38;;;13.82;;
17812;SDS011;9030;50.792;8.320;2023-06-22T08:06:08;15.68;;;13.85;;
17812;SDS011;9030;50.792;8.320;2023-06-22T08:08:35;15.20;;;13.70;;
17812;SDS011;9030;50.792;8.320;2023-06-22T08:11:02;14.85;;;13.43;;
17812;SDS011;9030;50.792;8.320;2023-06-22T08:13:30;13.55;;;12.20;;
17812;SDS011;9030;50.792;8.320;2023-06-22T08:15:56;13.15;;;11.75;;
17812;SDS011;9030;50.792;8.320;2023-06-22T08:18:23;15.65;;;12.27;;
17812;SDS011;9030;50.792;8.320;2023-06-22T08:20:50;16.13;;;12.45;;
17812;SDS011;9030;50.792;8.320;2023-06-22T08:23:18;14.10;;;12.65;;
17812;SDS011;9030;50.792;8.320;2023-06-22T08:25:45;14.23;;;12.60;;
17812;SDS011;9030;50.792;8.320;2023-06-22T08:28:13;13.18;;;11.77;;
17812;SDS011;9030;50.792;8.320;2023-06-22T08:30:40;13.55;;;12.15;;
17812;SDS011;9030;50.792;8.320;2023-06-22T08:33:06;12.02;;;10.73;;
17812;SDS011;9030;50.792;8.320;2023-06-22T08:35:33;14.70;;;11.90;;
17812;SDS011;9030;50.792;8.320;2023-06-22T08:38:00;15.73;;;12.60;;
17812;SDS011;9030;50.792;8.320;2023-06-22T08:40:28;13.70;;;12.10;;
17812;SDS011;9030;50.792;8.320;2023-06-22T08:42:55;15.10;;;12.05;;
17812;SDS011;9030;50.792;8.320;2023-06-22T08:45:22;12.27;;;10.90;;
17812;SDS011;9030;50.792;8.320;2023-06-22T08:47:48;14.48;;;11.95;;
17812;SDS011;9030;50.792;8.320;2023-06-22T08:50:15;14.07;;;12.68;;
17812;SDS011;9030;50.792;8.320;2023-06-22T08:52:42;12.93;;;11.65;;
17812;SDS011;9030;50.792;8.320;2023-06-22T08:55:08;14.70;;;12.07;;
17812;SDS011;9030;50.792;8.320;2023-06-22T08:57:37;14.02;;;11.45;;
17812;SDS011;9030;50.792;8.320;2023-06-22T09:00:05;13.80;;;12.25;;
17812;SDS011;9030;50.792;8.320;2023-06-22T09:02:40;15.23;;;12.05;;
17812;SDS011;9030;50.792;8.320;2023-06-22T09:05:07;16.20;;;12.85;;
17812;SDS011;9030;50.792;8.320;2023-06-22T09:07:34;13.23;;;11.77;;
17812;SDS011;9030;50.792;8.320;2023-06-22T09:10:00;14.25;;;12.73;;
17812;SDS011;9030;50.792;8.320;2023-06-22T09:12:29;13.70;;;11.40;;
17812;SDS011;9030;50.792;8.320;2023-06-22T09:14:59;14.27;;;12.85;;
17812;SDS011;9030;50.792;8.320;2023-06-22T09:17:26;12.02;;;10.70;;
17812;SDS011;9030;50.792;8.320;2023-06-22T09:19:53;13.85;;;12.13;;
17812;SDS011;9030;50.792;8.320;2023-06-22T09:22:19;16.33;;;14.27;;
17812;SDS011;9030;50.792;8.320;2023-06-22T09:24:46;13.77;;;12.38;;
17812;SDS011;9030;50.792;8.320;2023-06-22T09:27:13;14.70;;;12.93;;
17812;SDS011;9030;50.792;8.320;2023-06-22T09:29:40;14.05;;;12.18;;
17812;SDS011;9030;50.792;8.320;2023-06-22T09:32:08;18.02;;;12.65;;
17812;SDS011;9030;50.792;8.320;2023-06-22T09:34:35;14.65;;;13.15;;
17812;SDS011;9030;50.792;8.320;2023-06-22T09:37:01;14.05;;;11.98;;
17812;SDS011;9030;50.792;8.320;2023-06-22T09:39:28;13.43;;;12.10;;
17812;SDS011;9030;50.792;8.320;2023-06-22T09:41:55;14.85;;;12.18;;
17812;SDS011;9030;50.792;8.320;2023-06-22T09:44:24;14.63;;;12.63;;
17812;SDS011;9030;50.792;8.320;2023-06-22T09:46:50;15.63;;;12.23;;
17812;SDS011;9030;50.792;8.320;2023-06-22T09:49:19;16.83;;;13.93;;
17812;SDS011;9030;50.792;8.320;2023-06-22T09:51:45;16.20;;;13.48;;
17812;SDS011;9030;50.792;8.320;2023-06-22T09:54:12;16.05;;;14.27;;
17812;SDS011;9030;50.792;8.320;2023-06-22T09:56:39;13.90;;;12.50;;
17812;SDS011;9030;50.792;8.320;2023-06-22T09:59:06;16.02;;;14.43;;
17812;SDS011;9030;50.792;8.320;2023-06-22T10:01:32;16.98;;;13.15;;
17812;SDS011;9030;50.792;8.320;2023-06-22T10:03:59;15.52;;;14.02;;
17812;SDS011;9030;50.792;8.320;2023-06-22T10:06:27;15.00;;;13.60;;
17812;SDS011;9030;50.792;8.320;2023-06-22T10:08:54;15.90;;;12.80;;
17812;SDS011;9030;50.792;8.320;2023-06-22T10:11:20;16.13;;;13.88;;
17812;SDS011;9030;50.792;8.320;2023-06-22T10:13:52;16.40;;;14.68;;
17812;SDS011;9030;50.792;8.320;2023-06-22T10:16:18;14.35;;;12.77;;
17812;SDS011;9030;50.792;8.320;2023-06-22T10:18:45;15.23;;;13.68;;
17812;SDS011;9030;50.792;8.320;2023-06-22T10:21:12;19.38;;;13.45;;
17812;SDS011;9030;50.792;8.320;2023-06-22T10:23:40;14.20;;;12.25;;
17812;SDS011;9030;50.792;8.320;2023-06-22T10:26:07;14.48;;;12.98;;
17812;SDS011;9030;50.792;8.320;2023-06-22T10:28:33;16.42;;;13.68;;
17812;SDS011;9030;50.792;8.320;2023-06-22T10:31:00;15.73;;;11.77;;
17812;SDS011;9030;50.792;8.320;2023-06-22T10:33:27;14.15;;;12.75;;
17812;SDS011;9030;50.792;8.320;2023-06-22T10:35:54;14.77;;;12.18;;
17812;SDS011;9030;50.792;8.320;2023-06-22T10:38:20;17.83;;;11.82;;
17812;SDS011;9030;50.792;8.320;2023-06-22T10:40:48;13.30;;;11.90;;
17812;SDS011;9030;50.792;8.320;2023-06-22T10:43:15;14.38;;;12.90;;
17812;SDS011;9030;50.792;8.320;2023-06-22T10:45:42;13.68;;;12.18;;
17812;SDS011;9030;50.792;8.320;2023-06-22T10:48:08;15.07;;;13.48;;
17812;SDS011;9030;50.792;8.320;2023-06-22T10:50:35;17.17;;;11.65;;
17812;SDS011;9030;50.792;8.320;2023-06-22T10:53:02;17.35;;;13.25;;
17812;SDS011;9030;50.792;8.320;2023-06-22T10:55:28;15.57;;;12.43;;
17812;SDS011;9030;50.792;8.320;2023-06-22T10:57:56;14.43;;;13.02;;
17812;SDS011;9030;50.792;8.320;2023-06-22T11:00:23;15.25;;;13.07;;
17812;SDS011;9030;50.792;8.320;2023-06-22T11:02:50;14.45;;;12.15;;
17812;SDS011;9030;50.792;8.320;2023-06-22T11:05:16;13.57;;;12.27;;
17812;SDS011;9030;50.792;8.320;2023-06-22T11:07:43;15.90;;;13.63;;
17812;SDS011;9030;50.792;8.320;2023-06-22T11:10:10;18.85;;;12.30;;
17812;SDS011;9030;50.792;8.320;2023-06-22T11:12:38;17.80;;;13.00;;
17812;SDS011;9030;50.792;8.320;2023-06-22T11:15:07;14.05;;;12.50;;
17812;SDS011;9030;50.792;8.320;2023-06-22T11:17:34;14.98;;;13.48;;
17812;SDS011;9030;50.792;8.320;2023-06-22T11:20:01;13.02;;;10.98;;
17812;SDS011;9030;50.792;8.320;2023-06-22T11:22:29;14.80;;;13.40;;
17812;SDS011;9030;50.792;8.320;2023-06-22T11:24:58;14.32;;;12.93;;
17812;SDS011;9030;50.792;8.320;2023-06-22T11:27:25;15.98;;;13.63;;
17812;SDS011;9030;50.792;8.320;2023-06-22T11:29:51;15.18;;;13.02;;
17812;SDS011;9030;50.792;8.320;2023-06-22T11:32:20;15.95;;;12.65;;
17812;SDS011;9030;50.792;8.320;2023-06-22T11:34:46;16.83;;;15.32;;
17812;SDS011;9030;50.792;8.320;2023-06-22T11:37:13;14.85;;;13.10;;
17812;SDS011;9030;50.792;8.320;2023-06-22T11:39:40;17.33;;;15.52;;
17812;SDS011;9030;50.792;8.320;2023-06-22T11:42:07;15.30;;;13.68;;
17812;SDS011;9030;50.792;8.320;2023-06-22T11:44:34;14.82;;;13.32;;
17812;SDS011;9030;50.792;8.320;2023-06-22T11:47:01;14.95;;;12.73;;
17812;SDS011;9030;50.792;8.320;2023-06-22T11:49:30;15.20;;;13.10;;
17812;SDS011;9030;50.792;8.320;2023-06-22T11:51:57;14.90;;;12.88;;
17812;SDS011;9030;50.792;8.320;2023-06-22T11:54:24;15.40;;;13.85;;
17812;SDS011;9030;50.792;8.320;2023-06-22T11:56:50;15.35;;;13.50;;
17812;SDS011;9030;50.792;8.320;2023-06-22T11:59:17;14.68;;;13.15;;
17812;SDS011;9030;50.792;8.320;2023-06-22T12:01:44;17.45;;;14.80;;
17812;SDS011;9030;50.792;8.320;2023-06-22T12:04:10;15.10;;;12.68;;
17812;SDS011;9030;50.792;8.320;2023-06-22T12:06:38;17.10;;;13.35;;
17812;SDS011;9030;50.792;8.320;2023-06-22T12:09:07;15.48;;;13.15;;
17812;SDS011;9030;50.792;8.320;2023-06-22T12:11:33;15.27;;;13.68;;
17812;SDS011;9030;50.792;8.320;2023-06-22T12:14:00;15.35;;;13.65;;
17812;SDS011;9030;50.792;8.320;2023-06-22T12:16:27;15.32;;;13.68;;
17812;SDS011;9030;50.792;8.320;2023-06-22T12:18:54;15.93;;;13.50;;
17812;SDS011;9030;50.792;8.320;2023-06-22T12:21:20;13.95;;;12.57;;
17812;SDS011;9030;50.792;8.320;2023-06-22T12:23:49;14.93;;;13.38;;
17812;SDS011;9030;50.792;8.320;2023-06-22T12:26:15;15.32;;;13.82;;
17812;SDS011;9030;50.792;8.320;2023-06-22T12:28:42;14.73;;;12.88;;
17812;SDS011;9030;50.792;8.320;2023-06-22T12:31:09;15.55;;;12.27;;
17812;SDS011;9030;50.792;8.320;2023-06-22T12:33:35;14.27;;;12.38;;
17812;SDS011;9030;50.792;8.320;2023-06-22T12:36:02;13.15;;;10.95;;
17812;SDS011;9030;50.792;8.320;2023-06-22T12:38:30;13.95;;;11.98;;
17812;SDS011;9030;50.792;8.320;2023-06-22T12:40:58;14.48;;;12.93;;
17812;SDS011;9030;50.792;8.320;2023-06-22T12:43:24;15.85;;;14.18;;
17812;SDS011;9030;50.792;8.320;2023-06-22T12:45:51;14.52;;;12.70;;
17812;SDS011;9030;50.792;8.320;2023-06-22T12:48:18;14.00;;;12.50;;
17812;SDS011;9030;50.792;8.320;2023-06-22T12:50:45;15.48;;;13.82;;
17812;SDS011;9030;50.792;8.320;2023-06-22T12:53:12;13.68;;;12.05;;
17812;SDS011;9030;50.792;8.320;2023-06-22T12:55:39;14.75;;;13.18;;
17812;SDS011;9030;50.792;8.320;2023-06-22T12:58:07;14.32;;;12.77;;
17812;SDS011;9030;50.792;8.320;2023-06-22T13:00:34;13.07;;;11.68;;
17812;SDS011;9030;50.792;8.320;2023-06-22T13:03:00;12.85;;;10.68;;
17812;SDS011;9030;50.792;8.320;2023-06-22T13:05:27;14.23;;;12.60;;
17812;SDS011;9030;50.792;8.320;2023-06-22T13:07:53;17.27;;;12.25;;
17812;SDS011;9030;50.792;8.320;2023-06-22T13:10:20;13.20;;;11.75;;
17812;SDS011;9030;50.792;8.320;2023-06-22T13:12:47;13.65;;;11.13;;
17812;SDS011;9030;50.792;8.320;2023-06-22T13:15:15;12.68;;;11.35;;
17812;SDS011;9030;50.792;8.320;2023-06-22T13:17:41;13.18;;;10.55;;
17812;SDS011;9030;50.792;8.320;2023-06-22T13:20:08;13.13;;;11.63;;
17812;SDS011;9030;50.792;8.320;2023-06-22T13:22:35;13.50;;;11.88;;
17812;SDS011;9030;50.792;8.320;2023-06-22T13:25:05;15.48;;;9.77;;
17812;SDS011;9030;50.792;8.320;2023-06-22T13:27:36;13.45;;;11.68;;
17812;SDS011;9030;50.792;8.320;2023-06-22T13:30:03;14.02;;;11.90;;
17812;SDS011;9030;50.792;8.320;2023-06-22T13:32:32;16.83;;;12.27;;
17812;SDS011;9030;50.792;8.320;2023-06-22T13:34:59;12.10;;;10.65;;
17812;SDS011;9030;50.792;8.320;2023-06-22T13:37:25;16.67;;;11.88;;
17812;SDS011;9030;50.792;8.320;2023-06-22T13:39:52;13.63;;;10.68;;
17812;SDS011;9030;50.792;8.320;2023-06-22T13:42:21;13.27;;;11.88;;
17812;SDS011;9030;50.792;8.320;2023-06-22T13:44:47;16.90;;;12.30;;
17812;SDS011;9030;50.792;8.320;2023-06-22T13:47:14;13.68;;;11.95;;
17812;SDS011;9030;50.792;8.320;2023-06-22T13:49:42;15.10;;;12.48;;
17812;SDS011;9030;50.792;8.320;2023-06-22T13:52:08;14.68;;;13.05;;
17812;SDS011;9030;50.792;8.320;2023-06-22T13:54:37;16.33;;;12.18;;
17812;SDS011;9030;50.792;8.320;2023-06-22T13:57:04;14.45;;;12.95;;
17812;SDS011;9030;50.792;8.320;2023-06-22T13:59:31;17.45;;;13.40;;
17812;SDS011;9030;50.792;8.320;2023-06-22T14:01:58;16.05;;;12.90;;
17812;SDS011;9030;50.792;8.320;2023-06-22T14:04:25;16.13;;;12.43;;
17812;SDS011;9030;50.792;8.320;2023-06-22T14:06:53;14.30;;;12.90;;
17812;SDS011;9030;50.792;8.320;2023-06-22T14:09:20;14.98;;;12.43;;
17812;SDS011;9030;50.792;8.320;2023-06-22T14:11:47;15.63;;;13.07;;
17812;SDS011;9030;50.792;8.320;2023-06-22T14:14:14;15.32;;;13.65;;
17812;SDS011;9030;50.792;8.320;2023-06-22T14:16:40;15.73;;;12.15;;
17812;SDS011;9030;50.792;8.320;2023-06-22T14:19:07;18.33;;;14.00;;
17812;SDS011;9030;50.792;8.320;2023-06-22T14:21:33;13.70;;;12.18;;
17812;SDS011;9030;50.792;8.320;2023-06-22T14:24:02;18.05;;;12.13;;
17812;SDS011;9030;50.792;8.320;2023-06-22T14:26:28;14.48;;;12.98;;
17812;SDS011;9030;50.792;8.320;2023-06-22T14:28:55;14.88;;;13.27;;
17812;SDS011;9030;50.792;8.320;2023-06-22T14:31:22;15.50;;;13.27;;
17812;SDS011;9030;50.792;8.320;2023-06-22T14:33:49;15.52;;;12.82;;